Time;durP1;ratioP1;P1;durP2;ratioP2;P2;SDS_P1;SDS_P2;PMS_P1;PMS_P2;Temp;Humidity;BMP_temperature;BMP_pressure;BME280_temperature;BME280_humidity;BME280_pressure;Samples;Min_cycle;Max_cycle;Signal;HPM_P1;HPM_P2
2022/03/14 00:04:00;;;;;;;26.40;16.60;;;13.20;56.80;;;;;;12919130;23;20208;-83
2022/03/14 00:09:07;;;;;;;35.33;22.30;;;13.00;56.10;;;;;;12917720;23;20171;-83
2022/03/14 00:14:10;;;;;;;25.40;14.60;;;12.80;56.90;;;;;;12937792;23;20190;-83
2022/03/14 00:19:14;;;;;;;17.03;12.13;;;12.70;58.20;;;;;;12937444;23;20161;-83
2022/03/14 00:24:16;;;;;;;17.03;10.60;;;12.70;58.40;;;;;;12917852;23;20190;-83
2022/03/14 00:29:20;;;;;;;18.07;12.27;;;12.40;58.90;;;;;;12916766;23;20227;-83
2022/03/14 00:34:22;;;;;;;25.23;18.17;;;12.20;58.90;;;;;;12935162;23;20221;-83
2022/03/14 00:39:24;;;;;;;26.90;17.87;;;12.40;58.40;;;;;;12917792;23;20174;-83
2022/03/14 00:44:27;;;;;;;19.60;12.60;;;12.00;57.60;;;;;;12934033;23;20227;-83
2022/03/14 00:49:29;;;;;;;20.90;14.30;;;12.10;59.40;;;;;;12917896;23;20212;-83
2022/03/14 00:54:32;;;;;;;28.17;18.30;;;12.00;60.30;;;;;;12915713;23;20190;-83
2022/03/14 00:59:34;;;;;;;22.03;15.67;;;12.00;58.20;;;;;;12917173;23;20224;-84
2022/03/14 01:04:37;;;;;;;18.80;11.77;;;11.90;60.30;;;;;;12917280;23;20174;-83
2022/03/14 01:09:40;;;;;;;38.87;25.23;;;11.70;61.20;;;;;;12915343;23;20179;-83
2022/03/14 01:14:43;;;;;;;20.67;14.60;;;11.90;56.80;;;;;;12917211;23;20672;-83
2022/03/14 01:19:46;;;;;;;22.23;12.97;;;11.80;60.00;;;;;;12917407;23;20166;-83
2022/03/14 01:24:49;;;;;;;17.10;11.40;;;11.80;59.00;;;;;;12921093;23;20567;-83
2022/03/14 01:29:51;;;;;;;18.03;12.17;;;11.90;60.70;;;;;;12937461;23;20167;-83
2022/03/14 01:34:54;;;;;;;30.90;19.93;;;12.10;60.00;;;;;;12921374;23;20489;-83
2022/03/14 01:39:56;;;;;;;27.23;16.97;;;11.40;60.00;;;;;;12919118;23;20175;-83
2022/03/14 01:44:59;;;;;;;18.43;11.80;;;10.60;62.80;;;;;;12939004;23;20174;-83
2022/03/14 01:50:02;;;;;;;17.17;11.67;;;11.40;62.20;;;;;;12921669;23;20475;-84
2022/03/14 01:55:06;;;;;;;33.77;20.27;;;11.70;61.50;;;;;;12918643;23;20197;-84
2022/03/14 02:00:13;;;;;;;38.87;22.43;;;11.90;59.60;;;;;;12919736;23;20650;-84
2022/03/14 02:05:16;;;;;;;17.17;11.80;;;12.10;59.10;;;;;;12941872;23;20178;-84
2022/03/14 02:10:19;;;;;;;24.57;13.90;;;12.50;59.50;;;;;;12921017;23;20284;-84
2022/03/14 02:15:21;;;;;;;18.23;12.27;;;12.10;59.60;;;;;;12918885;23;20268;-83
2022/03/14 02:20:24;;;;;;;17.43;10.90;;;12.10;59.50;;;;;;12919322;23;20166;-84
2022/03/14 02:25:26;;;;;;;14.40;11.07;;;12.30;59.90;;;;;;12919493;23;20580;-84
2022/03/14 02:30:29;;;;;;;22.67;14.07;;;12.40;59.20;;;;;;12919974;23;20192;-84
2022/03/14 02:35:32;;;;;;;19.53;12.70;;;12.40;60.00;;;;;;12917898;23;20259;-84
2022/03/14 02:40:34;;;;;;;19.23;12.27;;;12.30;59.70;;;;;;12930136;23;20167;-84
2022/03/14 02:45:37;;;;;;;19.30;12.93;;;12.50;59.30;;;;;;12920053;23;20166;-84
2022/03/14 02:50:43;;;;;;;23.07;15.57;;;12.70;58.10;;;;;;12918052;23;20209;-84
2022/03/14 02:55:45;;;;;;;23.37;13.93;;;12.70;57.80;;;;;;12919408;23;20544;-83
2022/03/14 03:00:52;;;;;;;32.23;19.53;;;12.40;58.70;;;;;;12917856;23;20508;-84
2022/03/14 03:05:56;;;;;;;22.20;14.00;;;11.90;56.60;;;;;;12917547;23;20621;-85
2022/03/14 03:11:01;;;;;;;28.87;19.00;;;12.00;57.30;;;;;;12919196;23;20645;-85
2022/03/14 03:16:07;;;;;;;17.33;11.67;;;11.50;58.70;;;;;;12918948;23;20190;-84
2022/03/14 03:21:10;;;;;;;18.87;11.03;;;11.20;61.90;;;;;;12916821;23;20177;-84
2022/03/14 03:26:13;;;;;;;17.07;11.13;;;12.40;60.10;;;;;;12923404;23;20255;-85
2022/03/14 03:31:20;;;;;;;19.83;12.43;;;12.70;59.10;;;;;;12918666;23;20169;-85
2022/03/14 03:36:23;;;;;;;20.77;13.47;;;12.70;58.90;;;;;;12936324;23;20634;-85
2022/03/14 03:41:26;;;;;;;17.03;10.77;;;12.40;59.20;;;;;;12916685;23;20714;-85
2022/03/14 03:46:32;;;;;;;20.63;11.90;;;12.30;60.00;;;;;;12936206;23;20166;-85
2022/03/14 03:51:36;;;;;;;34.87;21.47;;;12.40;59.80;;;;;;12936238;23;20162;-85
2022/03/14 03:56:39;;;;;;;17.87;11.70;;;12.20;57.70;;;;;;12918415;23;20315;-85
2022/03/14 04:01:43;;;;;;;14.80;10.53;;;12.00;60.50;;;;;;12936817;23;20193;-85
2022/03/14 04:06:47;;;;;;;14.57;10.60;;;12.40;59.70;;;;;;12916016;23;20517;-85
2022/03/14 04:11:50;;;;;;;22.37;13.73;;;12.60;59.30;;;;;;12915341;23;20174;-85
2022/03/14 04:16:54;;;;;;;20.43;13.40;;;12.70;55.80;;;;;;12917690;23;20166;-85
2022/03/14 04:21:57;;;;;;;32.60;18.57;;;12.40;57.90;;;;;;12917605;23;20170;-85
2022/03/14 04:26:59;;;;;;;24.97;16.03;;;11.90;58.40;;;;;;12917647;23;20198;-85
2022/03/14 04:32:02;;;;;;;16.00;10.73;;;11.80;60.40;;;;;;12917441;23;20182;-85
2022/03/14 04:37:05;;;;;;;22.17;14.70;;;11.10;63.00;;;;;;12917541;23;20163;-85
2022/03/14 04:42:09;;;;;;;28.07;16.70;;;10.60;61.50;;;;;;12917724;23;20224;-85
2022/03/14 04:47:11;;;;;;;15.47;10.10;;;9.70;64.40;;;;;;12917622;23;20228;-85
2022/03/14 04:52:15;;;;;;;16.77;10.50;;;10.40;65.00;;;;;;12917425;23;20190;-85
2022/03/14 04:57:17;;;;;;;26.60;14.00;;;11.40;62.50;;;;;;12915329;23;20175;-84
2022/03/14 05:02:22;;;;;;;12.97;9.43;;;11.60;61.10;;;;;;12917403;23;20509;-85
2022/03/14 05:07:25;;;;;;;15.70;10.60;;;12.10;60.70;;;;;;12917062;23;20200;-84
2022/03/14 05:12:31;;;;;;;23.90;13.83;;;12.20;59.60;;;;;;12914632;23;20183;-85
2022/03/14 05:17:34;;;;;;;21.63;13.50;;;12.00;59.10;;;;;;12931681;23;20164;-85
2022/03/14 05:22:48;;;;;;;17.10;10.93;;;11.70;59.10;;;;;;12931059;23;20605;-85
2022/03/14 05:27:54;;;;;;;15.37;10.27;;;11.70;61.50;;;;;;12888450;23;20187;-85
2022/03/14 05:32:57;;;;;;;24.57;15.63;;;11.90;60.70;;;;;;12916463;23;20186;-85
2022/03/14 05:37:59;;;;;;;27.43;17.60;;;11.10;59.80;;;;;;12915561;23;20165;-84
2022/03/14 05:43:07;;;;;;;13.70;9.50;;;11.50;59.00;;;;;;12916071;23;20226;-84
2022/03/14 05:48:09;;;;;;;14.93;10.03;;;12.00;60.80;;;;;;12913783;23;20201;-85
2022/03/14 05:53:12;;;;;;;21.90;13.50;;;12.10;60.60;;;;;;12933140;23;20190;-84
2022/03/14 05:58:14;;;;;;;16.63;11.13;;;12.50;59.30;;;;;;12914640;23;20237;-84
2022/03/14 06:03:19;;;;;;;13.00;9.40;;;12.70;58.90;;;;;;12934457;23;20171;-84
2022/03/14 06:08:22;;;;;;;15.40;9.87;;;12.60;59.20;;;;;;12918366;23;20220;-84
2022/03/14 06:13:26;;;;;;;28.37;17.97;;;12.80;58.90;;;;;;12921691;23;20702;-96
2022/03/14 06:18:30;;;;;;;34.50;20.53;;;12.70;53.10;;;;;;12965109;23;20171;-95
2022/03/14 06:23:36;;;;;;;38.10;20.33;;;12.60;52.80;;;;;;12944533;23;20227;-96
2022/03/14 06:28:41;;;;;;;33.07;19.80;;;12.80;52.10;;;;;;12967758;23;20204;-94
2022/03/14 06:33:44;;;;;;;34.33;19.53;;;12.80;52.10;;;;;;12927505;23;20197;-94
2022/03/14 06:38:48;;;;;;;34.57;20.17;;;12.50;52.90;;;;;;12931587;23;20174;-95
2022/03/14 06:43:56;;;;;;;35.07;19.13;;;12.60;52.70;;;;;;12901669;23;20370;-94
2022/03/14 06:48:59;;;;;;;36.77;20.00;;;12.40;53.70;;;;;;12907853;23;20173;-93
2022/03/14 06:54:02;;;;;;;33.43;19.20;;;12.50;53.50;;;;;;12917689;23;20232;-85
2022/03/14 06:59:05;;;;;;;38.20;21.07;;;11.70;59.70;;;;;;12917382;23;20245;-86
2022/03/14 07:04:08;;;;;;;32.53;18.13;;;12.60;54.50;;;;;;12917320;23;20181;-85
2022/03/14 07:09:10;;;;;;;31.67;17.67;;;13.10;55.40;;;;;;12919336;23;20166;-86
2022/03/14 07:14:13;;;;;;;32.33;16.83;;;13.00;55.20;;;;;;12917794;23;20517;-86
2022/03/14 07:19:16;;;;;;;28.87;15.87;;;13.60;54.50;;;;;;12918240;23;20228;-86
2022/03/14 07:24:19;;;;;;;24.53;14.93;;;13.50;55.10;;;;;;12918322;23;20206;-86
2022/03/14 07:29:21;;;;;;;29.27;15.37;;;13.60;55.00;;;;;;12921106;23;20204;-86
2022/03/14 07:34:24;;;;;;;26.10;15.07;;;13.80;54.40;;;;;;12919148;23;20571;-86
2022/03/14 07:39:26;;;;;;;23.17;14.47;;;14.10;54.40;;;;;;12921519;23;20171;-86
2022/03/14 07:44:29;;;;;;;22.03;13.57;;;13.30;55.60;;;;;;12918819;23;20691;-87
2022/03/14 07:49:31;;;;;;;25.30;14.33;;;14.10;54.90;;;;;;12918859;23;20617;-87
2022/03/14 07:54:34;;;;;;;23.67;15.03;;;14.10;54.70;;;;;;12915647;23;20667;-87
2022/03/14 07:59:37;;;;;;;31.63;20.63;;;14.40;53.90;;;;;;12912216;23;20174;-87
2022/03/14 08:04:40;;;;;;;27.77;14.93;;;14.40;51.20;;;;;;12888723;23;20178;-88
2022/03/14 08:09:43;;;;;;;31.80;19.43;;;14.00;55.00;;;;;;12888292;23;20178;-88
2022/03/14 08:14:47;;;;;;;24.20;14.77;;;13.50;50.50;;;;;;12914351;23;20734;-87
2022/03/14 08:19:49;;;;;;;23.10;13.93;;;13.30;56.50;;;;;;12917310;23;20549;-87
2022/03/14 08:24:52;;;;;;;23.90;13.20;;;13.90;54.80;;;;;;12917521;23;20528;-87
2022/03/14 08:29:54;;;;;;;32.10;19.43;;;13.40;56.00;;;;;;12916577;23;20510;-87
2022/03/14 08:34:57;;;;;;;38.63;22.73;;;13.20;52.70;;;;;;12914606;23;20652;-86
2022/03/14 08:40:00;;;;;;;32.50;20.50;;;12.50;52.00;;;;;;12914150;23;20167;-87
2022/03/14 08:45:03;;;;;;;30.60;18.10;;;12.20;52.10;;;;;;12920673;23;20561;-87
2022/03/14 08:50:08;;;;;;;25.73;14.07;;;12.10;55.70;;;;;;12920357;23;20494;-86
2022/03/14 08:55:12;;;;;;;39.10;23.77;;;12.60;57.30;;;;;;12892236;23;20251;-85
2022/03/14 09:00:15;;;;;;;26.50;14.97;;;13.60;48.60;;;;;;12917590;23;20170;-86
2022/03/14 09:05:18;;;;;;;26.90;16.67;;;13.30;55.40;;;;;;12889581;23;20205;-86
2022/03/14 09:10:20;;;;;;;21.07;12.17;;;12.90;55.20;;;;;;12915765;23;20175;-86
2022/03/14 09:15:23;;;;;;;22.37;13.87;;;13.50;57.30;;;;;;12914557;23;20189;-86
2022/03/14 09:20:27;;;;;;;27.70;16.40;;;14.10;55.00;;;;;;12915693;23;20205;-86
2022/03/14 09:25:30;;;;;;;19.13;12.40;;;13.90;51.00;;;;;;12917681;23;20572;-86
2022/03/14 09:30:32;;;;;;;18.77;11.87;;;14.10;55.00;;;;;;12917512;23;20183;-86
2022/03/14 09:35:35;;;;;;;24.73;16.43;;;14.50;55.00;;;;;;12917373;23;20221;-86
2022/03/14 09:40:38;;;;;;;33.00;22.67;;;14.20;50.90;;;;;;12931649;23;20170;-86
2022/03/14 09:45:46;;;;;;;34.23;18.07;;;13.60;46.70;;;;;;12945223;22;20399;-86
2022/03/14 09:50:50;;;;;;;32.37;17.83;;;13.40;55.00;;;;;;12955688;22;20226;-86
2022/03/14 09:55:56;;;;;;;35.00;21.87;;;13.40;50.10;;;;;;12956042;22;20269;-86
2022/03/14 10:01:00;;;;;;;33.77;18.47;;;13.10;45.10;;;;;;12981484;22;20210;-86
2022/03/14 10:06:03;;;;;;;24.67;14.63;;;13.10;50.30;;;;;;12980342;22;20226;-86
2022/03/14 10:11:07;;;;;;;32.87;19.63;;;13.80;51.70;;;;;;12979840;22;20234;-86
2022/03/14 10:16:15;;;;;;;30.07;17.17;;;14.00;53.50;;;;;;12999354;22;20249;-86
2022/03/14 10:21:30;;;;;;;33.50;19.90;;;14.00;51.90;;;;;;12977827;22;20265;-86
2022/03/14 10:26:34;;;;;;;19.97;12.93;;;14.00;44.40;;;;;;12982616;22;20534;-86
2022/03/14 10:31:38;;;;;;;20.07;11.90;;;13.40;51.70;;;;;;12976768;22;20256;-85
2022/03/14 10:36:44;;;;;;;30.63;17.77;;;13.90;56.10;;;;;;12976480;22;20190;-86
2022/03/14 10:42:03;;;;;;;22.23;13.87;;;14.20;51.50;;;;;;12976852;22;20257;-86
2022/03/14 10:47:25;;;;;;;29.70;14.57;;;14.20;53.20;;;;;;12977316;22;20155;-86
2022/03/14 10:52:28;;;;;;;15.53;10.67;;;14.10;51.20;;;;;;12975097;22;20158;-86
2022/03/14 10:57:31;;;;;;;25.73;13.57;;;14.50;53.70;;;;;;12951894;22;20198;-87
2022/03/14 11:02:35;;;;;;;17.93;10.43;;;14.60;46.30;;;;;;12976299;22;20258;-87
2022/03/14 11:07:40;;;;;;;19.37;13.10;;;14.40;54.80;;;;;;12951991;22;20154;-87
2022/03/14 11:12:45;;;;;;;37.70;18.50;;;14.30;49.00;;;;;;12977862;22;20249;-87
2022/03/14 11:17:49;;;;;;;39.93;16.70;;;13.00;45.00;;;;;;12933295;23;20657;-87
2022/03/14 11:23:08;;;;;;;41.53;19.57;;;12.50;47.70;;;;;;12936141;23;20190;-87
2022/03/14 11:28:22;;;;;;;38.73;17.43;;;14.20;63.00;;;;;;12926306;23;20166;-87
2022/03/14 11:33:27;;;;;;;47.73;19.20;;;14.60;59.70;;;;;;12941920;23;20217;-87
2022/03/14 11:38:30;;;;;;;34.97;17.57;;;14.80;60.10;;;;;;12923762;23;20212;-87
2022/03/14 11:43:33;;;;;;;37.60;18.37;;;14.90;57.20;;;;;;12924306;23;20193;-87
2022/03/14 11:49:11;;;;;;;31.50;17.57;;;14.70;57.30;;;;;;12944891;23;20166;-87
2022/03/14 11:54:14;;;;;;;37.23;17.50;;;14.90;57.40;;;;;;12893944;23;20190;-87
2022/03/14 11:59:27;;;;;;;24.40;16.40;;;14.90;57.40;;;;;;12921005;23;20174;-87
2022/03/14 12:04:36;;;;;;;35.27;17.20;;;14.70;56.30;;;;;;12935489;23;20166;-87
2022/03/14 12:09:45;;;;;;;38.57;17.03;;;14.60;54.10;;;;;;12928444;23;20174;-87
2022/03/14 12:14:57;;;;;;;31.03;16.90;;;14.40;58.30;;;;;;12915249;23;20183;-87
2022/03/14 12:20:03;;;;;;;30.93;16.90;;;14.40;52.20;;;;;;12913160;23;20225;-87
2022/03/14 12:25:08;;;;;;;32.20;14.80;;;14.90;58.10;;;;;;12924666;23;20529;-87
2022/03/14 12:30:17;;;;;;;32.83;15.13;;;14.80;54.70;;;;;;12914894;23;20228;-87
2022/03/14 12:35:22;;;;;;;31.50;15.90;;;14.70;55.00;;;;;;12914049;23;20673;-86
2022/03/14 12:40:25;;;;;;;30.20;16.13;;;14.60;52.10;;;;;;12914313;23;20170;-87
2022/03/14 12:45:39;;;;;;;23.50;13.07;;;14.50;57.10;;;;;;12914000;23;20225;-87
2022/03/14 12:50:51;;;;;;;26.90;14.47;;;14.60;55.20;;;;;;12913235;23;20722;-86
2022/03/14 12:55:55;;;;;;;29.10;16.03;;;14.70;56.30;;;;;;12912143;23;20198;-87
2022/03/14 13:01:01;;;;;;;23.23;14.67;;;14.30;44.10;;;;;;12912751;23;20167;-87
2022/03/14 13:06:05;;;;;;;27.67;15.33;;;14.00;46.40;;;;;;12887152;23;20276;-86
2022/03/14 13:11:08;;;;;;;23.73;15.27;;;13.90;50.70;;;;;;12887304;23;20558;-86
2022/03/14 13:16:17;;;;;;;22.37;13.73;;;13.70;45.50;;;;;;12915576;23;20187;-87
2022/03/14 13:21:23;;;;;;;27.60;14.07;;;14.10;47.10;;;;;;12929225;23;20629;-86
2022/03/14 13:26:26;;;;;;;24.60;12.67;;;14.10;44.70;;;;;;12909933;23;20255;-86
2022/03/14 13:31:41;;;;;;;25.87;13.23;;;13.90;55.70;;;;;;12909575;23;20200;-87
2022/03/14 13:36:51;;;;;;;15.07;10.67;;;14.10;42.90;;;;;;12927476;23;20212;-87
2022/03/14 13:41:59;;;;;;;18.43;11.40;;;13.60;38.20;;;;;;12921981;23;20174;-86
2022/03/14 13:47:02;;;;;;;16.43;9.30;;;13.00;37.90;;;;;;12910651;23;20178;-87
2022/03/14 13:52:13;;;;;;;16.57;9.87;;;12.90;44.10;;;;;;12910522;23;20178;-86
2022/03/14 13:57:15;;;;;;;22.93;11.33;;;12.90;37.50;;;;;;12910928;23;20733;-87
2022/03/14 14:02:22;;;;;;;19.60;11.07;;;12.70;38.20;;;;;;12911157;23;20170;-86
2022/03/14 14:07:26;;;;;;;18.67;11.40;;;12.60;37.10;;;;;;12931413;23;20563;-86
2022/03/14 14:12:38;;;;;;;16.83;11.27;;;12.80;49.10;;;;;;12887682;23;20235;-86
2022/03/14 14:17:44;;;;;;;20.87;10.03;;;12.60;36.20;;;;;;12912029;23;20775;-86
2022/03/14 14:23:01;;;;;;;15.63;10.67;;;12.70;38.80;;;;;;12861979;23;1152416;-86
2022/03/14 14:28:24;;;;;;;15.83;10.27;;;12.90;40.90;;;;;;12914618;23;20830;-86
2022/03/14 14:33:33;;;;;;;21.97;10.73;;;12.80;39.10;;;;;;12936049;23;20166;-86
2022/03/14 14:38:36;;;;;;;16.13;11.63;;;13.90;57.80;;;;;;12892550;23;20194;-86
2022/03/14 14:43:43;;;;;;;17.37;11.70;;;13.70;39.50;;;;;;12920261;23;20216;-86
2022/03/14 14:48:47;;;;;;;17.07;10.47;;;13.60;42.10;;;;;;12918027;23;20174;-87
2022/03/14 14:53:50;;;;;;;22.97;12.80;;;13.60;54.30;;;;;;12918819;23;20549;-86
2022/03/14 14:58:54;;;;;;;14.73;10.83;;;14.40;57.10;;;;;;12916902;23;20544;-87
2022/03/14 15:03:58;;;;;;;18.53;11.73;;;14.20;45.90;;;;;;12914296;23;20208;-86
2022/03/14 15:09:00;;;;;;;16.30;10.60;;;14.20;52.00;;;;;;12915316;23;20228;-87
2022/03/14 15:14:03;;;;;;;22.50;11.33;;;14.30;53.60;;;;;;12916614;23;20221;-87
2022/03/14 15:19:05;;;;;;;15.57;9.70;;;14.00;45.90;;;;;;12932235;23;20163;-87
2022/03/14 15:24:08;;;;;;;17.70;13.57;;;13.90;55.50;;;;;;12913949;23;20690;-87
2022/03/14 15:29:10;;;;;;;16.20;11.07;;;13.40;41.70;;;;;;12913136;23;20179;-86
2022/03/14 15:34:13;;;;;;;23.90;13.00;;;13.40;50.90;;;;;;12888905;23;20622;-86
2022/03/14 15:39:16;;;;;;;21.93;12.97;;;13.50;44.90;;;;;;12911532;22;20257;-83
2022/03/14 15:44:19;;;;;;;15.30;11.10;;;13.30;46.70;;;;;;12911604;23;20242;-83
2022/03/14 15:49:22;;;;;;;26.30;12.43;;;13.40;52.30;;;;;;12911056;23;20696;-83
2022/03/14 15:54:27;;;;;;;16.47;10.50;;;13.40;49.90;;;;;;12912473;23;20213;-84
2022/03/14 15:59:36;;;;;;;16.37;10.27;;;13.40;55.80;;;;;;12928723;23;20166;-83
2022/03/14 16:04:38;;;;;;;26.33;14.90;;;13.50;56.70;;;;;;12912334;23;20196;-83
2022/03/14 16:09:41;;;;;;;20.53;11.80;;;12.20;40.50;;;;;;12911320;23;20248;-81
2022/03/14 16:14:43;;;;;;;27.43;15.13;;;12.60;57.40;;;;;;12930627;23;20187;-81
2022/03/14 16:19:46;;;;;;;28.47;14.47;;;12.30;47.30;;;;;;12911784;23;20197;-82
2022/03/14 16:24:48;;;;;;;26.50;10.80;;;11.60;49.80;;;;;;12912951;23;20251;-82
2022/03/14 16:29:54;;;;;;;60.07;17.03;;;11.30;55.80;;;;;;12915903;23;20181;-80
2022/03/14 16:34:57;;;;;;;55.20;15.13;;;12.70;47.70;;;;;;12911429;23;20229;-79
2022/03/14 16:40:00;;;;;;;41.57;14.80;;;12.60;48.60;;;;;;12913185;23;20256;-79
2022/03/14 16:45:03;;;;;;;47.70;14.53;;;12.50;50.00;;;;;;12888630;23;20166;-80
2022/03/14 16:50:06;;;;;;;36.13;16.67;;;12.50;50.70;;;;;;12917043;23;20221;-79
2022/03/14 16:55:10;;;;;;;31.60;13.57;;;11.70;52.40;;;;;;12916410;23;20183;-80
2022/03/14 17:00:15;;;;;;;44.60;16.20;;;11.70;54.40;;;;;;12916136;23;20174;-79
2022/03/14 17:05:18;;;;;;;24.57;11.73;;;11.80;54.70;;;;;;12916110;23;20170;-79
2022/03/14 17:10:35;;;;;;;25.67;11.27;;;11.80;56.00;;;;;;12916232;23;20193;-80
2022/03/14 17:15:39;;;;;;;44.70;14.80;;;11.90;56.50;;;;;;12913791;22;20210;-86
2022/03/14 17:20:43;;;;;;;25.83;11.37;;;12.30;56.50;;;;;;12914359;23;20167;-85
2022/03/14 17:25:49;;;;;;;19.80;11.77;;;12.50;56.20;;;;;;12918134;22;20190;-87
2022/03/14 17:30:52;;;;;;;21.77;10.57;;;12.60;55.80;;;;;;12916081;23;20233;-86
2022/03/14 17:35:56;;;;;;;18.00;9.63;;;12.40;56.50;;;;;;12934547;23;20182;-86
2022/03/14 17:40:59;;;;;;;39.47;19.93;;;12.30;57.10;;;;;;12917279;23;20170;-86
2022/03/14 17:46:01;;;;;;;36.73;20.37;;;12.60;49.80;;;;;;12916925;23;20166;-96
2022/03/14 17:51:06;;;;;;;43.33;21.97;;;13.40;46.70;;;;;;12853894;22;20203;-78
2022/03/14 17:56:09;;;;;;;64.83;31.53;;;13.30;46.90;;;;;;12826075;23;20194;-78
2022/03/14 18:01:12;;;;;;;85.80;42.43;;;13.10;46.70;;;;;;12826923;23;20542;-78
2022/03/14 18:06:14;;;;;;;66.30;32.97;;;11.70;47.60;;;;;;12856627;23;20190;-79
2022/03/14 18:11:17;;;;;;;79.80;30.40;;;10.70;54.50;;;;;;12856724;23;20175;-81
2022/03/14 18:16:19;;;;;;;76.40;33.67;;;12.10;53.10;;;;;;12853513;23;20199;-80
2022/03/14 18:21:22;;;;;;;79.27;40.17;;;12.10;49.70;;;;;;12830528;23;20174;-80
2022/03/14 18:26:24;;;;;;;79.63;37.40;;;4.50;64.20;;;;;;12856757;23;20178;-79
2022/03/14 18:31:28;;;;;;;89.37;44.10;;;3.50;69.00;;;;;;12849114;23;20178;-79
2022/03/14 18:36:31;;;;;;;91.27;42.57;;;3.50;67.10;;;;;;12855659;23;20519;-80
2022/03/14 18:41:45;;;;;;;33.07;15.20;;;4.20;74.90;;;;;;12827650;23;20237;-83
2022/03/14 18:46:52;;;;;;;34.83;17.07;;;6.80;99.90;;;;;;12854732;23;20226;-82
2022/03/14 18:51:54;;;;;;;37.17;14.63;;;8.10;99.90;;;;;;12830690;23;20249;-81
2022/03/14 18:56:57;;;;;;;28.77;15.80;;;8.80;99.90;;;;;;12854921;22;20265;-84
2022/03/14 19:02:01;;;;;;;58.83;28.43;;;10.20;96.00;;;;;;12917737;23;20164;-84
2022/03/14 19:07:06;;;;;;;28.97;13.97;;;10.10;81.50;;;;;;12916212;23;20165;-84
2022/03/14 19:12:09;;;;;;;84.10;35.30;;;11.90;87.40;;;;;;12916351;23;20205;-84
2022/03/14 19:17:13;;;;;;;57.73;27.13;;;12.80;63.20;;;;;;12918572;23;20190;-85
2022/03/14 19:22:17;;;;;;;58.17;30.30;;;12.70;62.70;;;;;;12890892;23;20170;-85
2022/03/14 19:27:20;;;;;;;68.97;27.53;;;12.40;60.10;;;;;;12916296;23;20228;-85
2022/03/14 19:32:23;;;;;;;55.70;27.20;;;11.10;66.20;;;;;;12918267;23;20162;-85
2022/03/14 19:37:26;;;;;;;53.33;23.70;;;11.70;64.90;;;;;;12918472;23;20240;-85
2022/03/14 19:42:29;;;;;;;45.10;23.03;;;11.10;67.10;;;;;;12917508;23;20625;-84
2022/03/14 19:47:35;;;;;;;49.53;27.37;;;11.30;63.30;;;;;;12916490;23;20232;-85
2022/03/14 19:52:38;;;;;;;51.87;25.80;;;11.60;63.40;;;;;;12933649;23;20174;-86
2022/03/14 19:57:40;;;;;;;40.73;20.83;;;11.70;65.10;;;;;;12918221;22;20206;-79
2022/03/14 20:02:49;;;;;;;45.33;21.87;;;11.40;66.40;;;;;;12934458;23;20166;-78
2022/03/14 20:07:51;;;;;;;37.00;19.40;;;10.80;66.40;;;;;;12917956;23;20170;-80
2022/03/14 20:12:54;;;;;;;38.70;19.40;;;11.20;69.00;;;;;;12915892;23;20236;-80
2022/03/14 20:17:56;;;;;;;39.97;20.57;;;11.80;67.00;;;;;;12917863;23;20216;-85
2022/03/14 20:23:00;;;;;;;43.77;22.77;;;12.00;66.50;;;;;;12915418;23;20162;-80
2022/03/14 20:28:02;;;;;;;34.77;19.60;;;11.90;66.40;;;;;;12914228;23;20248;-81
2022/03/14 20:33:05;;;;;;;47.73;24.43;;;11.80;66.00;;;;;;12916021;23;20174;-80
2022/03/14 20:38:08;;;;;;;36.17;21.03;;;11.70;66.20;;;;;;12917515;23;20740;-80
2022/03/14 20:43:11;;;;;;;34.00;19.20;;;11.80;66.80;;;;;;12914332;23;20182;-80
2022/03/14 20:48:14;;;;;;;34.73;19.27;;;11.80;66.90;;;;;;12886549;23;20174;-80
2022/03/14 20:53:17;;;;;;;32.60;18.17;;;11.80;66.80;;;;;;12914135;23;20197;-80
2022/03/14 20:58:21;;;;;;;48.90;24.33;;;12.00;66.70;;;;;;12911541;23;20722;-80
2022/03/14 21:03:24;;;;;;;50.87;27.77;;;11.90;66.40;;;;;;12911891;23;20629;-79
2022/03/14 21:08:27;;;;;;;51.30;26.27;;;12.00;66.30;;;;;;12913378;23;20166;-79
2022/03/14 21:13:30;;;;;;;33.63;18.43;;;11.90;66.40;;;;;;12911043;23;20780;-80
2022/03/14 21:18:35;;;;;;;64.87;31.87;;;12.10;66.80;;;;;;12913982;23;20660;-80
2022/03/14 21:23:37;;;;;;;31.43;18.27;;;12.30;65.40;;;;;;12913272;23;20171;-79
2022/03/14 21:28:40;;;;;;;40.97;22.47;;;12.20;66.00;;;;;;12912767;23;20808;-80
2022/03/14 21:33:43;;;;;;;67.20;35.27;;;12.10;65.70;;;;;;12914518;23;20175;-80
2022/03/14 21:38:45;;;;;;;70.67;34.57;;;11.60;64.10;;;;;;12914269;22;20970;-86
2022/03/14 21:43:49;;;;;;;94.97;45.07;;;10.40;67.60;;;;;;12918272;23;20171;-86
2022/03/14 21:48:52;;;;;;;62.77;32.33;;;11.00;67.50;;;;;;12918580;23;20681;-86
2022/03/14 21:54:00;;;;;;;106.90;50.77;;;11.20;67.70;;;;;;12889448;23;20224;-86
2022/03/14 21:59:02;;;;;;;67.53;34.53;;;11.10;65.90;;;;;;12920443;23;20204;-86
2022/03/14 22:04:10;;;;;;;70.03;36.20;;;11.30;67.40;;;;;;12916487;23;20179;-86
2022/03/14 22:09:14;;;;;;;50.10;25.70;;;10.70;67.60;;;;;;12916567;23;20200;-86
2022/03/14 22:14:17;;;;;;;66.20;34.13;;;10.60;69.40;;;;;;12916516;23;20967;-86
2022/03/14 22:19:20;;;;;;;35.57;21.37;;;11.10;68.60;;;;;;12918311;23;20209;-86
2022/03/14 22:24:22;;;;;;;39.17;22.07;;;11.60;67.80;;;;;;12916603;23;20197;-86
2022/03/14 22:29:25;;;;;;;30.27;19.03;;;12.20;66.40;;;;;;12891008;23;20178;-86
2022/03/14 22:34:28;;;;;;;34.67;19.87;;;12.50;65.60;;;;;;12915438;23;20703;-86
2022/03/14 22:39:31;;;;;;;30.80;19.10;;;13.30;63.70;;;;;;12914225;23;20206;-86
2022/03/14 22:44:34;;;;;;;30.50;18.97;;;13.70;62.20;;;;;;12914076;23;20175;-86
2022/03/14 22:49:37;;;;;;;56.17;30.33;;;13.60;62.30;;;;;;12913926;23;20182;-86
2022/03/14 22:54:43;;;;;;;45.73;26.13;;;13.30;59.90;;;;;;12916615;23;20202;-86
2022/03/14 22:59:46;;;;;;;45.00;25.87;;;12.50;63.10;;;;;;12891586;23;20203;-86
2022/03/14 23:10:09;;;;;;;37.97;23.10;;;12.50;64.40;;;;;;12936214;23;20552;-86
2022/03/14 23:15:12;;;;;;;44.27;24.17;;;12.20;64.60;;;;;;12935368;23;20571;-86
2022/03/14 23:20:18;;;;;;;34.70;20.43;;;12.30;64.70;;;;;;12916683;23;20198;-86
2022/03/14 23:25:22;;;;;;;36.87;21.27;;;12.60;64.80;;;;;;12918619;23;20471;-86
2022/03/14 23:30:25;;;;;;;34.63;18.97;;;13.30;62.90;;;;;;12918808;23;20174;-86
2022/03/14 23:35:29;;;;;;;32.53;20.00;;;12.90;63.30;;;;;;12916963;23;20336;-86
2022/03/14 23:40:37;;;;;;;28.57;18.03;;;13.60;62.20;;;;;;12917615;23;20191;-85
2022/03/14 23:45:41;;;;;;;28.37;18.03;;;13.70;61.80;;;;;;12918794;23;20228;-86
2022/03/14 23:50:44;;;;;;;31.07;17.53;;;14.50;60.20;;;;;;12915042;23;20233;-85
2022/03/14 23:55:46;;;;;;;33.70;19.37;;;14.30;60.00;;;;;;12918652;23;20610;-85
